Time;durP1;ratioP1;P1;durP2;ratioP2;P2;SDS_P1;SDS_P2;PMS_P1;PMS_P2;Temp;Humidity;BMP_temperature;BMP_pressure;BME280_temperature;BME280_humidity;BME280_pressure;Samples;Min_cycle;Max_cycle;Signal;HPM_P1;HPM_P2
2023/05/14 00:01:08;;;;;;;10.40;8.10;;;;;;;9.51;96.58;101417.00;4984921;28;20038;-81
2023/05/14 00:03:36;;;;;;;9.00;7.80;;;;;;;9.56;96.71;101409.91;4993869;28;20038;-80
2023/05/14 00:06:03;;;;;;;10.10;8.30;;;;;;;9.55;97.41;101402.88;5008545;28;20153;-82
2023/05/14 00:08:29;;;;;;;11.37;8.80;;;;;;;9.58;97.55;101405.53;5011530;28;20044;-81
2023/05/14 00:10:56;;;;;;;9.30;8.13;;;;;;;9.63;97.53;101402.84;4978492;28;20518;-79
2023/05/14 00:13:24;;;;;;;9.33;8.27;;;;;;;9.66;97.88;101402.84;5012041;28;20114;-81
2023/05/14 00:15:51;;;;;;;11.07;8.20;;;;;;;9.66;97.72;101399.31;5008266;28;20034;-80
2023/05/14 00:18:17;;;;;;;9.60;7.67;;;;;;;9.51;99.04;101401.16;4991243;28;20053;-79
2023/05/14 00:20:44;;;;;;;10.47;8.63;;;;;;;9.51;98.74;101403.81;4997554;28;20423;-80
2023/05/14 00:23:11;;;;;;;10.90;8.20;;;;;;;9.47;99.43;101395.91;5004995;28;20114;-81
2023/05/14 00:25:41;;;;;;;8.80;7.90;;;;;;;9.49;99.30;101396.75;4991891;28;20061;-80
2023/05/14 00:28:10;;;;;;;9.83;8.83;;;;;;;9.51;100.00;101395.91;4975189;28;20053;-80
2023/05/14 00:30:38;;;;;;;10.93;8.33;;;;;;;9.46;100.00;101400.28;5008654;28;20100;-80
2023/05/14 00:33:05;;;;;;;9.43;8.03;;;;;;;9.41;100.00;101394.16;5009786;28;20033;-80
2023/05/14 00:35:38;;;;;;;11.40;8.70;;;;;;;9.44;100.00;101393.28;4989137;28;20101;-81
2023/05/14 00:38:06;;;;;;;8.80;7.90;;;;;;;9.42;100.00;101403.84;4994562;28;20495;-80
2023/05/14 00:40:33;;;;;;;9.57;8.07;;;;;;;9.41;100.00;101393.28;4992054;28;20046;-80
2023/05/14 00:42:59;;;;;;;9.07;8.10;;;;;;;9.44;100.00;101393.28;4996455;28;20081;-80
2023/05/14 00:45:26;;;;;;;10.70;7.63;;;;;;;9.42;100.00;101388.03;5013225;28;20046;-80
2023/05/14 00:47:53;;;;;;;13.37;8.63;;;;;;;9.48;100.00;101392.38;4990920;28;20510;-81
2023/05/14 00:50:20;;;;;;;11.13;8.53;;;;;;;9.48;100.00;101387.09;5013125;28;20422;-80
2023/05/14 00:52:47;;;;;;;9.07;8.13;;;;;;;9.46;100.00;101391.50;4989966;28;20045;-80
2023/05/14 00:55:16;;;;;;;9.63;8.50;;;;;;;9.51;100.00;101387.97;5007903;28;20045;-80
2023/05/14 00:57:43;;;;;;;9.27;8.27;;;;;;;9.50;100.00;101386.22;5020908;28;20052;-80
2023/05/14 01:00:10;;;;;;;8.87;7.97;;;;;;;9.45;100.00;101385.34;4978701;28;20504;-81
2023/05/14 01:02:36;;;;;;;9.20;8.10;;;;;;;9.49;100.00;101394.13;5010896;28;20038;-81
2023/05/14 01:05:04;;;;;;;10.37;8.30;;;;;;;9.57;100.00;101390.56;5007313;28;20050;-82
2023/05/14 01:08:16;;;;;;;9.67;8.23;;;;;;;9.49;100.00;101386.22;5005488;28;20048;-80
2023/05/14 01:10:59;;;;;;;11.17;8.53;;;;;;;9.52;100.00;101387.09;4973720;28;20085;-81
2023/05/14 01:13:32;;;;;;;10.83;8.43;;;;;;;9.54;100.00;101387.94;5024493;28;20057;-81
2023/05/14 01:16:00;;;;;;;9.27;8.25;;;;;;;9.41;100.00;101388.88;5004017;28;20056;-80
2023/05/14 01:18:27;;;;;;;9.57;8.57;;;;;;;9.50;100.00;101382.69;5006261;28;20109;-80
2023/05/14 01:20:53;;;;;;;9.40;8.40;;;;;;;9.51;100.00;101390.63;4983939;28;20171;-80
2023/05/14 01:23:20;;;;;;;9.37;8.10;;;;;;;9.50;100.00;101391.50;4986679;28;20101;-81
2023/05/14 01:25:47;;;;;;;10.37;9.03;;;;;;;9.49;100.00;101388.84;5004875;28;20050;-80
2023/05/14 01:28:27;;;;;;;12.37;8.67;;;;;;;9.47;100.00;101383.59;4992441;28;20081;-81
2023/05/14 01:31:09;;;;;;;9.20;8.23;;;;;;;9.55;100.00;101391.47;5017832;28;20047;-80
2023/05/14 01:33:39;;;;;;;8.87;7.47;;;;;;;9.51;100.00;101381.81;5006172;28;20129;-80
2023/05/14 01:36:05;;;;;;;9.20;8.00;;;;;;;9.43;100.00;101387.13;4994217;28;20065;-79
2023/05/14 01:38:33;;;;;;;9.93;8.43;;;;;;;9.45;100.00;101382.72;4974578;28;20044;-80
2023/05/14 01:41:00;;;;;;;9.53;8.53;;;;;;;9.39;100.00;101379.22;4997954;28;20046;-80
2023/05/14 01:43:27;;;;;;;10.20;7.87;;;;;;;9.39;100.00;101369.56;5012413;28;20468;-80
2023/05/14 01:45:54;;;;;;;9.70;8.17;;;;;;;9.33;100.00;101382.75;4982168;28;20034;-79
2023/05/14 01:48:21;;;;;;;10.57;8.03;;;;;;;9.27;100.00;101373.13;4973129;28;20069;-80
2023/05/14 01:50:48;;;;;;;9.17;8.27;;;;;;;9.22;100.00;101377.53;4996233;28;20042;-79
2023/05/14 01:53:14;;;;;;;9.13;7.73;;;;;;;9.28;100.00;101372.25;4990205;28;20466;-78
2023/05/14 01:55:41;;;;;;;9.87;8.17;;;;;;;9.37;100.00;101366.06;4987453;28;20042;-80
2023/05/14 01:58:08;;;;;;;9.40;7.70;;;;;;;9.37;100.00;101371.31;5009096;28;20497;-79
2023/05/14 02:00:34;;;;;;;8.87;7.67;;;;;;;9.45;100.00;101369.53;5013287;28;20038;-80
2023/05/14 02:03:01;;;;;;;9.50;8.10;;;;;;;9.39;100.00;101366.03;5010081;28;20043;-80
2023/05/14 02:05:28;;;;;;;9.53;7.83;;;;;;;9.33;100.00;101366.94;5009407;28;20046;-80
2023/05/14 02:07:54;;;;;;;9.27;7.80;;;;;;;9.25;100.00;101358.22;4982034;28;20407;-79
2023/05/14 02:10:21;;;;;;;10.90;8.33;;;;;;;9.08;100.00;101358.25;4997840;28;20038;-79
2023/05/14 02:12:48;;;;;;;10.27;7.80;;;;;;;8.96;100.00;101356.53;4980112;28;20034;-79
2023/05/14 02:15:15;;;;;;;10.87;7.67;;;;;;;8.88;100.00;101354.78;4970548;28;20050;-79
2023/05/14 02:17:42;;;;;;;9.60;7.77;;;;;;;8.87;100.00;101358.31;4985705;28;20050;-80
2023/05/14 02:20:09;;;;;;;9.87;7.80;;;;;;;8.82;100.00;101355.66;4987100;28;20046;-79
2023/05/14 02:22:36;;;;;;;9.73;7.07;;;;;;;8.76;100.00;101357.47;5003223;28;20048;-79
2023/05/14 02:25:03;;;;;;;9.30;7.50;;;;;;;8.70;100.00;101358.34;5005720;28;20065;-79
2023/05/14 02:27:30;;;;;;;8.73;7.10;;;;;;;8.67;100.00;101359.22;5023968;28;20046;-80
2023/05/14 02:29:59;;;;;;;8.90;7.43;;;;;;;8.61;100.00;101356.59;4995475;28;20045;-80
2023/05/14 02:32:26;;;;;;;8.53;7.23;;;;;;;8.59;100.00;101352.22;4995830;28;20069;-79
2023/05/14 02:34:53;;;;;;;9.60;8.03;;;;;;;8.59;100.00;101353.09;4997106;28;20056;-80
2023/05/14 02:37:20;;;;;;;8.20;7.40;;;;;;;8.60;100.00;101351.34;5008060;28;20044;-79
2023/05/14 02:39:47;;;;;;;8.67;7.77;;;;;;;8.52;100.00;101351.34;5007068;28;20046;-80
2023/05/14 02:42:14;;;;;;;9.30;7.83;;;;;;;8.43;100.00;101352.22;4971153;28;20074;-80
2023/05/14 02:44:41;;;;;;;9.50;7.70;;;;;;;8.38;100.00;101348.72;5014623;28;20058;-80
2023/05/14 02:47:08;;;;;;;8.70;7.70;;;;;;;8.36;100.00;101345.22;4998471;28;20042;-79
2023/05/14 02:49:34;;;;;;;10.47;8.30;;;;;;;8.33;100.00;101350.44;4997097;28;20434;-80
2023/05/14 02:52:02;;;;;;;10.77;7.70;;;;;;;8.33;100.00;101350.44;4992944;28;20140;-79
2023/05/14 02:54:28;;;;;;;9.77;7.30;;;;;;;8.39;100.00;101347.81;5008734;28;20042;-79
2023/05/14 02:56:56;;;;;;;12.20;7.90;;;;;;;8.52;100.00;101355.75;5028031;28;20041;-80
2023/05/14 02:59:23;;;;;;;10.13;8.17;;;;;;;8.48;100.00;101346.94;5012864;28;20083;-79
2023/05/14 03:01:50;;;;;;;9.13;8.13;;;;;;;8.43;100.00;101349.59;5000251;28;20062;-79
2023/05/14 03:04:20;;;;;;;10.07;8.33;;;;;;;8.41;100.00;101346.09;4994095;28;20038;-80
2023/05/14 03:06:46;;;;;;;10.73;8.07;;;;;;;8.39;100.00;101354.84;4996230;28;20049;-79
2023/05/14 03:09:13;;;;;;;9.30;7.67;;;;;;;8.40;100.00;101356.59;5006205;28;20046;-79
2023/05/14 03:11:40;;;;;;;9.63;7.60;;;;;;;8.26;100.00;101356.59;4984108;28;20169;-79
2023/05/14 03:14:06;;;;;;;9.90;7.57;;;;;;;8.33;100.00;101358.34;4976237;28;20042;-80
2023/05/14 03:16:33;;;;;;;9.73;8.20;;;;;;;8.33;100.00;101353.09;5007140;28;20045;-80
2023/05/14 03:19:00;;;;;;;9.83;8.20;;;;;;;8.36;100.00;101346.97;4998671;28;20422;-79
2023/05/14 03:21:26;;;;;;;9.20;7.27;;;;;;;8.37;100.00;101346.97;4995467;28;20532;-80
2023/05/14 03:23:53;;;;;;;8.47;7.67;;;;;;;8.36;100.00;101349.59;4997428;28;20038;-80
2023/05/14 03:26:20;;;;;;;10.97;8.13;;;;;;;8.35;100.00;101347.84;5019032;28;20088;-79
2023/05/14 03:28:47;;;;;;;11.03;8.43;;;;;;;8.30;100.00;101354.81;4979260;28;20073;-80
2023/05/14 03:31:14;;;;;;;10.70;8.30;;;;;;;8.24;100.00;101347.81;4987861;28;20045;-80
2023/05/14 03:33:40;;;;;;;10.60;7.60;;;;;;;8.24;100.00;101355.72;4994585;28;20061;-80
2023/05/14 03:36:07;;;;;;;12.77;8.83;;;;;;;8.32;100.00;101351.31;4989255;28;20050;-80
2023/05/14 03:38:34;;;;;;;11.67;8.40;;;;;;;8.35;100.00;101356.63;4989263;28;20042;-80
2023/05/14 03:41:00;;;;;;;9.50;8.17;;;;;;;8.30;100.00;101355.69;4994837;28;20056;-81
2023/05/14 03:43:27;;;;;;;9.90;7.43;;;;;;;8.29;100.00;101353.94;4996474;28;20034;-79
2023/05/14 03:45:53;;;;;;;8.50;7.43;;;;;;;8.32;100.00;101355.69;5009241;28;20561;-80
2023/05/14 03:48:20;;;;;;;9.67;8.00;;;;;;;8.42;100.00;101347.84;5008733;28;20054;-80
2023/05/14 03:50:47;;;;;;;9.00;7.93;;;;;;;8.58;100.00;101353.97;4998968;28;20040;-80
2023/05/14 03:53:15;;;;;;;9.47;7.97;;;;;;;8.50;100.00;101347.84;4998958;28;20088;-79
2023/05/14 03:55:42;;;;;;;9.93;8.10;;;;;;;8.48;100.00;101351.34;4999636;28;20061;-81
2023/05/14 03:58:13;;;;;;;9.80;7.20;;;;;;;8.47;100.00;101345.19;4975108;28;20077;-80
2023/05/14 04:00:43;;;;;;;9.87;7.67;;;;;;;8.52;100.00;101347.84;5010582;28;20064;-79
2023/05/14 04:03:10;;;;;;;11.93;8.17;;;;;;;8.63;100.00;101335.53;4984927;28;20092;-78
2023/05/14 04:05:37;;;;;;;9.27;7.63;;;;;;;8.66;100.00;101335.50;4983430;28;20057;-78
2023/05/14 04:08:04;;;;;;;9.47;7.90;;;;;;;8.71;100.00;101341.66;4996547;28;20042;-78
2023/05/14 04:10:31;;;;;;;10.40;8.27;;;;;;;8.76;100.00;101337.25;4981532;28;20105;-78
2023/05/14 04:12:58;;;;;;;10.03;7.77;;;;;;;8.93;100.00;101334.59;5001292;28;20044;-80
2023/05/14 04:15:25;;;;;;;10.47;8.10;;;;;;;8.92;100.00;101341.63;5014764;28;20056;-78
2023/05/14 04:17:51;;;;;;;9.70;8.13;;;;;;;8.97;100.00;101333.69;5001963;28;20046;-80
2023/05/14 04:20:18;;;;;;;10.23;8.87;;;;;;;9.11;100.00;101328.38;5014936;28;20057;-81
2023/05/14 04:22:45;;;;;;;11.03;8.60;;;;;;;9.09;100.00;101332.78;5006345;28;20104;-79
2023/05/14 04:25:12;;;;;;;11.73;8.33;;;;;;;9.10;100.00;101335.41;4999909;28;20050;-79
2023/05/14 04:27:38;;;;;;;9.27;8.27;;;;;;;9.23;100.00;101338.84;5013015;28;20046;-80
2023/05/14 04:30:07;;;;;;;8.93;8.03;;;;;;;9.34;100.00;101337.06;5018598;28;20050;-79
2023/05/14 04:32:34;;;;;;;11.57;9.03;;;;;;;9.46;100.00;101342.28;4986604;28;20061;-80
2023/05/14 04:35:01;;;;;;;9.57;8.20;;;;;;;9.52;100.00;101333.47;4997778;28;20081;-80
2023/05/14 04:37:28;;;;;;;10.87;8.87;;;;;;;9.61;100.00;101340.44;5014394;28;20046;-80
2023/05/14 04:39:54;;;;;;;10.87;9.57;;;;;;;9.67;100.00;101329.84;5007352;28;20534;-78
2023/05/14 04:42:21;;;;;;;9.37;8.20;;;;;;;9.68;100.00;101334.25;5005521;28;20050;-80
2023/05/14 04:44:48;;;;;;;9.10;7.87;;;;;;;9.72;100.00;101331.56;4999623;28;20049;-79
2023/05/14 04:47:15;;;;;;;10.17;8.23;;;;;;;9.70;100.00;101336.00;5011229;28;20045;-79
2023/05/14 04:49:42;;;;;;;9.83;8.40;;;;;;;9.57;100.00;101329.00;5015442;28;20034;-79
2023/05/14 04:52:08;;;;;;;9.83;8.10;;;;;;;9.53;100.00;101329.94;5020097;28;20049;-80
2023/05/14 04:54:35;;;;;;;9.73;7.70;;;;;;;9.61;100.00;101333.41;5014194;28;20070;-79
2023/05/14 04:57:02;;;;;;;11.03;8.07;;;;;;;9.75;100.00;101331.56;5000081;28;20049;-80
2023/05/14 04:59:29;;;;;;;8.85;7.55;;;;;;;10.10;100.00;101327.81;4998036;28;20034;-80
2023/05/14 05:01:56;;;;;;;9.63;8.18;;;;;;;10.34;100.00;101326.72;5013973;28;20034;-79
2023/05/14 05:04:23;;;;;;;8.52;7.63;;;;;;;10.36;100.00;101317.91;5004169;28;20133;-80
2023/05/14 05:06:49;;;;;;;7.83;6.83;;;;;;;10.32;100.00;101317.94;5012708;28;20046;-79
2023/05/14 05:09:17;;;;;;;9.23;8.25;;;;;;;10.36;100.00;101310.00;5011163;28;20782;-80
2023/05/14 05:11:43;;;;;;;8.63;7.73;;;;;;;10.36;100.00;101319.69;4988850;28;20037;-79
2023/05/14 05:14:10;;;;;;;9.25;7.90;;;;;;;10.48;100.00;101313.41;4992265;28;20034;-80
2023/05/14 05:16:37;;;;;;;8.23;7.18;;;;;;;10.58;100.00;101321.22;5009385;28;20038;-79
2023/05/14 05:19:03;;;;;;;9.15;7.68;;;;;;;10.63;100.00;101321.19;5010480;28;20053;-80
2023/05/14 05:21:30;;;;;;;9.35;8.35;;;;;;;10.85;100.00;101314.78;5010750;28;20125;-80
2023/05/14 05:23:57;;;;;;;10.23;8.57;;;;;;;11.03;100.00;101313.69;5013067;28;20426;-79
2023/05/14 05:26:25;;;;;;;10.10;7.60;;;;;;;11.19;100.00;101304.69;4995849;28;20045;-79
2023/05/14 05:28:52;;;;;;;9.48;8.45;;;;;;;11.34;100.00;101308.00;4991907;28;20042;-80
2023/05/14 05:31:19;;;;;;;10.05;8.43;;;;;;;11.93;100.00;101299.22;5003273;28;20042;-80
2023/05/14 05:33:46;;;;;;;9.40;7.35;;;;;;;12.77;99.50;101305.69;4999737;28;20061;-82
2023/05/14 05:36:12;;;;;;;8.13;7.32;;;;;;;13.60;93.20;101293.38;5010402;28;20038;-83
2023/05/14 05:38:39;;;;;;;7.38;6.68;;;;;;;14.20;86.79;101292.81;4977365;28;20136;-82
2023/05/14 05:41:06;;;;;;;7.32;6.63;;;;;;;14.15;87.00;101295.59;5009687;28;20415;-81
2023/05/14 05:43:33;;;;;;;8.90;7.47;;;;;;;13.82;87.64;101293.78;4978122;28;20046;-79
2023/05/14 05:45:59;;;;;;;7.72;7.03;;;;;;;13.78;89.07;101287.66;4968463;28;20050;-81
2023/05/14 05:48:27;;;;;;;7.88;7.13;;;;;;;13.79;89.91;101292.06;5011112;28;20042;-81
2023/05/14 05:50:53;;;;;;;8.77;7.55;;;;;;;13.73;88.62;101294.88;5006065;28;20034;-81
2023/05/14 05:53:20;;;;;;;7.72;6.93;;;;;;;13.57;90.76;101293.47;5005026;28;20037;-81
2023/05/14 05:55:47;;;;;;;8.32;7.05;;;;;;;14.03;89.58;101287.94;5004062;28;20042;-81
2023/05/14 05:58:16;;;;;;;8.70;6.93;;;;;;;14.45;84.04;101293.97;4993816;28;20046;-81
2023/05/14 06:00:43;;;;;;;8.23;7.18;;;;;;;14.80;82.91;101281.53;4985960;28;20034;-80
2023/05/14 06:03:10;;;;;;;8.05;7.25;;;;;;;15.72;81.14;101284.97;5005596;28;20038;-81
2023/05/14 06:05:37;;;;;;;7.68;6.78;;;;;;;17.08;72.15;101282.97;5007905;28;20045;-81
2023/05/14 06:08:04;;;;;;;6.47;5.88;;;;;;;18.11;65.62;101278.00;5004848;28;20045;-81
2023/05/14 06:10:31;;;;;;;7.97;5.40;;;;;;;18.61;60.25;101277.63;4991716;28;20048;-81
2023/05/14 06:12:57;;;;;;;6.47;5.88;;;;;;;18.82;59.42;101275.84;4992187;28;20053;-81
2023/05/14 06:15:24;;;;;;;6.75;6.05;;;;;;;18.91;58.32;101272.75;4990917;28;20113;-80
2023/05/14 06:17:51;;;;;;;5.82;5.32;;;;;;;19.13;55.44;101269.97;4985773;28;20507;-78
2023/05/14 06:20:18;;;;;;;7.75;6.15;;;;;;;19.33;58.31;101272.56;5018285;28;20462;-80
2023/05/14 06:22:44;;;;;;;6.05;5.38;;;;;;;19.47;49.77;101266.56;5007988;28;20080;-80
2023/05/14 06:25:11;;;;;;;10.25;5.55;;;;;;;19.88;44.15;101269.06;4996212;28;20042;-78
2023/05/14 06:27:38;;;;;;;5.20;4.70;;;;;;;20.36;44.51;101270.25;5006778;28;20034;-81
2023/05/14 06:30:05;;;;;;;8.13;5.45;;;;;;;20.56;47.38;101272.78;4976801;28;20059;-81
2023/05/14 06:32:32;;;;;;;5.38;4.55;;;;;;;19.86;39.46;101273.66;5010025;28;20046;-80
2023/05/14 06:34:59;;;;;;;6.07;4.50;;;;;;;19.49;44.10;101274.53;5001679;28;20097;-78
2023/05/14 06:37:25;;;;;;;8.30;4.55;;;;;;;19.10;47.51;101281.69;5009873;28;20048;-80
2023/05/14 06:39:52;;;;;;;76.18;11.85;;;;;;;18.62;50.02;101286.53;4995403;28;20038;-77
2023/05/14 06:42:20;;;;;;;49.60;10.13;;;;;;;18.29;53.16;101281.69;5011275;28;20050;-77
2023/05/14 06:44:47;;;;;;;22.33;8.07;;;;;;;17.95;49.23;101283.13;5003277;28;20372;-79
2023/05/14 06:47:13;;;;;;;20.73;6.72;;;;;;;17.71;54.87;101273.41;5023488;28;20067;-79
2023/05/14 06:49:40;;;;;;;11.73;6.13;;;;;;;17.66;53.60;101276.25;5013232;28;20054;-79
2023/05/14 06:52:07;;;;;;;6.15;4.95;;;;;;;17.44;53.39;101276.22;4980591;28;20053;-81
2023/05/14 06:54:33;;;;;;;8.15;5.00;;;;;;;17.40;46.84;101282.63;4983826;28;20041;-80
2023/05/14 06:57:00;;;;;;;6.38;5.00;;;;;;;17.31;50.42;101282.97;5010146;28;20054;-79
2023/05/14 06:59:27;;;;;;;6.53;5.25;;;;;;;17.33;50.74;101286.47;5016130;28;20041;-80
2023/05/14 07:01:53;;;;;;;6.22;4.90;;;;;;;17.53;49.21;101282.13;4990713;28;20041;-80
2023/05/14 07:04:20;;;;;;;7.03;5.40;;;;;;;17.42;52.76;101282.56;4995310;28;20066;-81
2023/05/14 07:06:47;;;;;;;6.65;5.53;;;;;;;17.63;46.24;101281.69;5006465;28;20038;-80
2023/05/14 07:09:14;;;;;;;6.90;4.30;;;;;;;17.93;47.59;101270.75;4995977;28;20038;-81
2023/05/14 07:11:41;;;;;;;7.32;4.43;;;;;;;18.14;43.65;101268.97;5002726;28;20046;-81
2023/05/14 07:14:07;;;;;;;8.32;4.75;;;;;;;18.69;45.66;101272.84;5006040;28;20042;-81
2023/05/14 07:16:34;;;;;;;6.50;4.65;;;;;;;19.06;46.04;101266.69;5011198;28;20507;-81
2023/05/14 07:19:01;;;;;;;8.75;4.75;;;;;;;19.31;43.15;101260.19;5008648;28;20110;-81
2023/05/14 07:21:28;;;;;;;7.80;4.28;;;;;;;19.46;42.77;101256.78;4994145;28;20042;-80
2023/05/14 07:23:55;;;;;;;5.95;4.82;;;;;;;19.60;43.08;101257.03;5024857;28;20041;-81
2023/05/14 07:26:23;;;;;;;7.30;4.45;;;;;;;19.44;40.96;101256.00;5011576;28;20056;-80
2023/05/14 07:28:50;;;;;;;9.32;5.18;;;;;;;19.84;42.12;101251.38;5004078;28;20041;-81
2023/05/14 07:31:16;;;;;;;5.20;4.25;;;;;;;20.17;41.80;101254.19;4972082;28;20052;-81
2023/05/14 07:33:43;;;;;;;5.18;4.50;;;;;;;20.40;40.28;101255.69;5006443;28;20030;-81
2023/05/14 07:36:10;;;;;;;6.03;4.30;;;;;;;20.35;38.73;101245.22;5009416;28;20096;-81
2023/05/14 07:38:36;;;;;;;5.78;4.00;;;;;;;20.43;37.97;101237.69;4992587;28;20041;-80
2023/05/14 07:41:03;;;;;;;6.20;4.35;;;;;;;20.36;37.93;101235.34;5012722;28;20103;-80
2023/05/14 07:43:30;;;;;;;71.18;12.40;;;;;;;20.40;40.45;101232.41;4990480;28;20074;-81
2023/05/14 07:45:57;;;;;;;34.83;8.90;;;;;;;20.53;40.02;101235.38;5009737;28;20035;-80
2023/05/14 07:48:23;;;;;;;9.02;4.72;;;;;;;20.56;38.31;101240.56;5008169;28;20040;-80
2023/05/14 07:50:50;;;;;;;5.97;4.28;;;;;;;21.24;39.90;101233.25;5010348;28;20045;-81
2023/05/14 07:53:17;;;;;;;5.75;4.00;;;;;;;21.48;37.63;101235.56;4985879;28;20117;-80
2023/05/14 07:55:44;;;;;;;5.57;4.10;;;;;;;21.46;37.76;101234.78;5009844;28;20084;-81
2023/05/14 07:58:11;;;;;;;5.47;4.13;;;;;;;21.24;38.12;101244.00;5011955;28;20127;-81
2023/05/14 08:00:38;;;;;;;5.80;3.83;;;;;;;20.69;36.94;101238.97;4999229;28;20045;-82
2023/05/14 08:03:04;;;;;;;5.05;3.97;;;;;;;20.69;37.85;101235.44;5005842;28;20042;-82
2023/05/14 08:05:31;;;;;;;4.63;3.40;;;;;;;20.49;39.18;101233.78;5011070;28;20042;-81
2023/05/14 08:07:58;;;;;;;5.60;4.10;;;;;;;20.30;38.12;101232.97;5005838;28;20045;-80
2023/05/14 08:10:25;;;;;;;6.13;4.28;;;;;;;20.04;38.22;101237.88;5009867;28;20037;-81
2023/05/14 08:12:52;;;;;;;7.10;4.50;;;;;;;20.01;40.91;101232.66;4991105;28;20401;-80
2023/05/14 08:15:19;;;;;;;8.27;5.03;;;;;;;19.74;42.89;101228.66;5011353;28;20038;-81
2023/05/14 08:17:46;;;;;;;5.50;4.43;;;;;;;20.09;39.08;101225.06;5006670;28;20038;-81
2023/05/14 08:20:13;;;;;;;10.23;4.88;;;;;;;20.09;41.77;101234.94;4987484;28;20097;-81
2023/05/14 08:22:40;;;;;;;11.13;4.75;;;;;;;19.88;42.07;101234.22;5009332;28;20092;-81
2023/05/14 08:25:07;;;;;;;17.33;5.80;;;;;;;20.09;41.86;101232.25;4997558;28;20042;-80
2023/05/14 08:27:33;;;;;;;7.57;4.03;;;;;;;20.08;41.90;101231.38;5009167;28;20045;-80
2023/05/14 08:30:00;;;;;;;6.43;4.88;;;;;;;20.33;40.95;101232.81;5018724;28;20045;-81
2023/05/14 08:32:27;;;;;;;5.85;4.50;;;;;;;20.38;42.35;101230.75;5007493;28;20514;-80
2023/05/14 08:34:53;;;;;;;5.93;4.18;;;;;;;20.41;39.62;101219.84;4995095;28;20081;-80
2023/05/14 08:37:20;;;;;;;6.50;4.00;;;;;;;19.90;38.21;101226.97;5006163;28;20048;-81
2023/05/14 08:39:46;;;;;;;5.35;3.80;;;;;;;20.11;39.50;101225.88;4990052;28;20042;-83
2023/05/14 08:42:14;;;;;;;7.32;4.53;;;;;;;19.93;40.10;101218.78;4994036;28;20041;-82
2023/05/14 08:44:50;;;;;;;6.47;4.25;;;;;;;19.99;39.04;101223.81;4992869;28;20050;-80
2023/05/14 08:47:17;;;;;;;4.25;3.83;;;;;;;20.12;40.73;101213.34;5002618;28;20042;-81
2023/05/14 09:02:30;;;;;;;4.63;4.00;;;;;;;20.47;38.59;101209.72;5100853;27;20396;-80
2023/05/14 09:04:59;;;;;;;7.88;4.55;;;;;;;20.27;38.56;101212.56;5065355;28;20045;-80
2023/05/14 09:07:26;;;;;;;5.43;4.30;;;;;;;20.50;38.59;101205.97;5083317;28;20058;-80
2023/05/14 09:09:53;;;;;;;6.22;4.00;;;;;;;20.41;36.56;101212.66;5067439;28;20067;-80
2023/05/14 09:12:20;;;;;;;5.18;4.15;;;;;;;20.42;39.31;101203.66;5051689;28;20063;-80
2023/05/14 09:14:48;;;;;;;5.53;4.15;;;;;;;20.59;38.09;101199.25;5062418;28;20056;-80
2023/05/14 09:17:15;;;;;;;6.43;4.03;;;;;;;20.69;38.04;101205.91;5100803;28;20032;-80
2023/05/14 09:19:43;;;;;;;3.83;3.50;;;;;;;20.58;36.73;101209.13;5046061;28;20040;-80
2023/05/14 09:22:14;;;;;;;5.03;3.50;;;;;;;20.46;37.20;101202.59;5063686;28;20050;-81
2023/05/14 09:24:41;;;;;;;5.40;3.80;;;;;;;20.35;36.64;101198.72;5066975;28;20493;-80
2023/05/14 09:27:09;;;;;;;4.80;3.83;;;;;;;20.56;37.52;101192.25;5085681;28;20036;-80
2023/05/14 09:29:36;;;;;;;77.55;11.43;;;;;;;20.59;38.74;101205.50;5063322;28;20044;-79
2023/05/14 09:32:09;;;;;;;5.80;4.07;;;;;;;20.69;38.55;101198.69;5084830;28;20059;-81
2023/05/14 09:34:38;;;;;;;5.38;3.75;;;;;;;20.70;37.18;101197.75;5077481;28;20048;-80
2023/05/14 09:37:08;;;;;;;4.20;3.80;;;;;;;20.67;38.88;101188.97;5066559;28;20044;-82
2023/05/14 09:39:36;;;;;;;5.15;3.88;;;;;;;20.46;36.90;101196.38;5065534;28;20043;-81
2023/05/14 09:42:03;;;;;;;4.60;3.72;;;;;;;20.80;38.16;101192.75;5098245;28;20091;-79
2023/05/14 09:44:36;;;;;;;5.75;4.00;;;;;;;21.11;37.89;101186.56;5066626;28;20036;-80
2023/05/14 09:47:15;;;;;;;5.85;4.45;;;;;;;21.33;36.32;101187.09;5088891;28;20032;-80
2023/05/14 09:49:43;;;;;;;5.32;4.20;;;;;;;21.13;36.71;101176.56;5083731;28;20053;-79
2023/05/14 09:52:12;;;;;;;5.32;3.78;;;;;;;21.51;36.54;101173.53;5103569;28;20090;-78
2023/05/14 09:54:40;;;;;;;21.98;5.88;;;;;;;21.54;34.28;101165.31;5070747;28;20040;-80
2023/05/14 09:57:07;;;;;;;9.75;4.35;;;;;;;21.84;35.22;101158.13;5053379;28;20074;-78
2023/05/14 09:59:33;;;;;;;5.82;3.72;;;;;;;21.06;34.66;101156.38;5084332;28;20032;-79
2023/05/14 10:02:01;;;;;;;5.07;4.05;;;;;;;21.00;35.40;101149.53;5061591;28;20044;-78
2023/05/14 10:04:27;;;;;;;5.10;3.40;;;;;;;21.59;36.40;101149.75;5070502;28;21972;-79
2023/05/14 10:06:55;;;;;;;5.78;4.03;;;;;;;22.05;35.98;101134.44;5071123;28;20047;-78
2023/05/14 10:09:26;;;;;;;6.82;3.50;;;;;;;22.17;33.00;101138.25;5087527;28;20045;-79
2023/05/14 10:11:58;;;;;;;5.85;3.65;;;;;;;21.53;32.88;101134.03;5088906;28;20044;-78
2023/05/14 10:26:38;;;;;;;5.85;3.83;;;;;;;22.95;31.26;101112.69;5102998;27;20375;-80
2023/05/14 10:29:05;;;;;;;5.22;4.18;;;;;;;23.30;32.01;101101.41;5085180;28;20047;-80
2023/05/14 10:31:48;;;;;;;6.35;4.30;;;;;;;23.33;32.28;101105.72;5075241;28;20116;-80
2023/05/14 10:34:39;;;;;;;4.50;4.10;;;;;;;22.62;32.05;101107.59;5066032;28;20036;-80
2023/05/14 10:37:09;;;;;;;6.43;3.85;;;;;;;22.95;32.82;101110.00;5082081;28;20051;-84
2023/05/14 10:40:00;;;;;;;7.55;3.97;;;;;;;22.67;31.21;101100.06;5084548;28;20042;-82
2023/05/14 10:42:39;;;;;;;51.65;9.55;;;;;;;22.76;31.54;101099.47;5051810;28;20468;-83
2023/05/14 10:45:07;;;;;;;9.82;4.75;;;;;;;22.24;32.06;101101.06;5066508;28;20131;-81
2023/05/14 10:47:39;;;;;;;6.15;4.10;;;;;;;22.33;33.40;101084.31;5078259;28;20456;-82
2023/05/14 10:50:08;;;;;;;5.43;4.20;;;;;;;22.57;33.49;101082.78;5045290;28;20049;-85
2023/05/14 10:52:35;;;;;;;7.20;4.38;;;;;;;22.91;32.58;101076.13;5060530;28;20036;-81
2023/05/14 10:55:09;;;;;;;7.78;4.43;;;;;;;22.93;31.62;101063.41;5065161;28;20475;-83
2023/05/14 10:57:37;;;;;;;6.63;4.28;;;;;;;23.14;31.71;101058.44;5077424;28;20143;-84
2023/05/14 11:00:09;;;;;;;6.55;4.63;;;;;;;23.31;33.37;101060.00;5079890;28;20040;-82
2023/05/14 11:02:43;;;;;;;11.15;4.90;;;;;;;23.32;31.46;101064.41;5043984;28;20049;-81
2023/05/14 11:05:14;;;;;;;7.07;4.68;;;;;;;23.66;32.58;101059.47;5059414;28;20029;-80
2023/05/14 11:07:46;;;;;;;7.32;4.80;;;;;;;23.77;31.89;101048.78;5054555;28;20044;-82
2023/05/14 11:10:24;;;;;;;209.57;30.88;;;;;;;24.02;31.45;101045.22;5052457;28;20747;-80
2023/05/14 11:13:04;;;;;;;5.00;4.32;;;;;;;24.21;29.96;101040.25;5073229;28;20036;-82
2023/05/14 11:15:35;;;;;;;7.45;4.35;;;;;;;24.54;30.25;101055.88;5070585;28;20039;-81
2023/05/14 11:18:02;;;;;;;6.97;4.35;;;;;;;24.08;27.28;101037.56;5090565;28;20075;-81
2023/05/14 11:20:31;;;;;;;5.85;3.80;;;;;;;24.58;28.73;101040.34;5084715;28;20040;-82
2023/05/14 11:22:59;;;;;;;7.13;4.15;;;;;;;24.47;28.46;101024.03;5059492;28;20123;-81
2023/05/14 11:25:26;;;;;;;5.22;4.28;;;;;;;23.96;27.93;101027.63;5071195;28;20347;-83
2023/05/14 11:27:57;;;;;;;5.95;3.90;;;;;;;23.75;27.76;101029.16;5053756;28;20041;-81
2023/05/14 11:30:23;;;;;;;6.45;4.10;;;;;;;23.03;28.71;101025.91;5036712;28;20713;-80
2023/05/14 11:32:51;;;;;;;5.93;4.50;;;;;;;23.03;28.71;101026.78;5059236;28;20036;-81
2023/05/14 11:35:17;;;;;;;5.60;4.20;;;;;;;22.94;30.61;101031.91;5052184;28;20029;-82
2023/05/14 11:37:54;;;;;;;5.53;3.80;;;;;;;22.62;29.86;101023.25;5071566;28;20047;-81
2023/05/14 11:40:20;;;;;;;5.95;4.57;;;;;;;22.39;30.54;101022.03;5051108;28;20312;-81
2023/05/14 11:42:50;;;;;;;11.52;4.65;;;;;;;22.16;30.81;101021.66;5046675;28;20037;-80
2023/05/14 11:45:25;;;;;;;15.80;4.72;;;;;;;22.03;31.45;101020.69;5048202;28;20047;-81
2023/05/14 11:47:55;;;;;;;6.10;4.20;;;;;;;21.58;31.60;101027.03;5053287;28;20032;-81
2023/05/14 11:50:40;;;;;;;7.07;4.20;;;;;;;21.34;31.83;101024.88;5069000;28;20037;-81
2023/05/14 11:53:10;;;;;;;6.35;4.30;;;;;;;21.12;32.53;101018.16;5041936;28;20070;-81